sensor_id;sensor_type;location;lat;lon;timestamp;P1;durP1;ratioP1;P2;durP2;ratioP2
9254;SDS011;4663;49.120;9.730;2023-07-13T00:00:24;29.23;;;27.83;;
9254;SDS011;4663;49.120;9.730;2023-07-13T00:02:50;24.45;;;23.30;;
9254;SDS011;4663;49.120;9.730;2023-07-13T00:05:18;32.35;;;30.80;;
9254;SDS011;4663;49.120;9.730;2023-07-13T00:07:44;42.17;;;40.15;;
9254;SDS011;4663;49.120;9.730;2023-07-13T00:10:11;51.53;;;49.00;;
9254;SDS011;4663;49.120;9.730;2023-07-13T00:12:37;43.85;;;41.78;;
9254;SDS011;4663;49.120;9.730;2023-07-13T00:15:05;59.88;;;56.97;;
9254;SDS011;4663;49.120;9.730;2023-07-13T00:17:33;73.20;;;69.75;;
9254;SDS011;4663;49.120;9.730;2023-07-13T00:19:58;51.33;;;48.78;;
9254;SDS011;4663;49.120;9.730;2023-07-13T00:22:24;57.75;;;55.00;;
9254;SDS011;4663;49.120;9.730;2023-07-13T00:24:54;51.42;;;49.00;;
9254;SDS011;4663;49.120;9.730;2023-07-13T00:27:23;51.58;;;49.13;;
9254;SDS011;4663;49.120;9.730;2023-07-13T00:29:51;49.53;;;47.22;;
9254;SDS011;4663;49.120;9.730;2023-07-13T00:32:16;61.50;;;58.15;;
9254;SDS011;4663;49.120;9.730;2023-07-13T00:34:41;50.45;;;48.05;;
9254;SDS011;4663;49.120;9.730;2023-07-13T00:37:07;78.45;;;74.80;;
9254;SDS011;4663;49.120;9.730;2023-07-13T00:39:35;77.43;;;73.85;;
9254;SDS011;4663;49.120;9.730;2023-07-13T00:42:01;112.85;;;107.63;;
9254;SDS011;4663;49.120;9.730;2023-07-13T00:44:27;87.40;;;83.32;;
9254;SDS011;4663;49.120;9.730;2023-07-13T00:46:53;95.05;;;90.53;;
9254;SDS011;4663;49.120;9.730;2023-07-13T00:49:21;99.47;;;94.88;;
9254;SDS011;4663;49.120;9.730;2023-07-13T00:51:55;114.75;;;109.45;;
9254;SDS011;4663;49.120;9.730;2023-07-13T00:54:34;105.50;;;100.53;;
9254;SDS011;4663;49.120;9.730;2023-07-13T00:57:11;71.70;;;68.20;;
9254;SDS011;4663;49.120;9.730;2023-07-13T00:59:41;76.70;;;73.07;;
9254;SDS011;4663;49.120;9.730;2023-07-13T01:02:08;97.22;;;92.72;;
9254;SDS011;4663;49.120;9.730;2023-07-13T01:04:35;85.22;;;81.32;;
9254;SDS011;4663;49.120;9.730;2023-07-13T01:07:00;100.63;;;96.00;;
9254;SDS011;4663;49.120;9.730;2023-07-13T01:09:26;67.72;;;64.47;;
9254;SDS011;4663;49.120;9.730;2023-07-13T01:11:52;72.93;;;69.50;;
9254;SDS011;4663;49.120;9.730;2023-07-13T01:14:18;80.63;;;76.82;;
9254;SDS011;4663;49.120;9.730;2023-07-13T01:16:44;68.03;;;64.82;;
9254;SDS011;4663;49.120;9.730;2023-07-13T01:19:16;93.50;;;89.20;;
9254;SDS011;4663;49.120;9.730;2023-07-13T01:21:43;81.38;;;77.65;;
9254;SDS011;4663;49.120;9.730;2023-07-13T01:24:09;87.13;;;83.07;;
9254;SDS011;4663;49.120;9.730;2023-07-13T01:26:34;72.22;;;68.68;;
9254;SDS011;4663;49.120;9.730;2023-07-13T01:29:00;73.35;;;69.85;;
9254;SDS011;4663;49.120;9.730;2023-07-13T01:31:25;95.72;;;91.35;;
9254;SDS011;4663;49.120;9.730;2023-07-13T01:33:50;53.50;;;51.00;;
9254;SDS011;4663;49.120;9.730;2023-07-13T01:36:16;48.00;;;45.70;;
9254;SDS011;4663;49.120;9.730;2023-07-13T01:38:41;49.60;;;47.25;;
9254;SDS011;4663;49.120;9.730;2023-07-13T01:41:07;49.03;;;46.53;;
9254;SDS011;4663;49.120;9.730;2023-07-13T01:43:33;61.17;;;58.28;;
9254;SDS011;4663;49.120;9.730;2023-07-13T01:45:58;64.78;;;61.67;;
9254;SDS011;4663;49.120;9.730;2023-07-13T01:48:23;71.05;;;67.57;;
9254;SDS011;4663;49.120;9.730;2023-07-13T01:50:49;53.08;;;50.50;;
9254;SDS011;4663;49.120;9.730;2023-07-13T01:53:15;44.05;;;41.95;;
9254;SDS011;4663;49.120;9.730;2023-07-13T01:55:41;42.10;;;40.08;;
9254;SDS011;4663;49.120;9.730;2023-07-13T01:58:07;54.95;;;52.22;;
9254;SDS011;4663;49.120;9.730;2023-07-13T02:00:33;74.07;;;70.40;;
9254;SDS011;4663;49.120;9.730;2023-07-13T02:02:58;73.18;;;69.72;;
9254;SDS011;4663;49.120;9.730;2023-07-13T02:05:24;82.20;;;78.38;;
9254;SDS011;4663;49.120;9.730;2023-07-13T02:07:50;53.63;;;50.97;;
9254;SDS011;4663;49.120;9.730;2023-07-13T02:10:15;54.55;;;51.85;;
9254;SDS011;4663;49.120;9.730;2023-07-13T02:12:41;55.35;;;52.58;;
9254;SDS011;4663;49.120;9.730;2023-07-13T02:15:07;59.15;;;56.17;;
9254;SDS011;4663;49.120;9.730;2023-07-13T02:17:33;53.88;;;51.22;;
9254;SDS011;4663;49.120;9.730;2023-07-13T02:19:59;73.18;;;69.68;;
9254;SDS011;4663;49.120;9.730;2023-07-13T02:22:25;74.88;;;71.28;;
9254;SDS011;4663;49.120;9.730;2023-07-13T02:24:50;62.47;;;59.42;;
9254;SDS011;4663;49.120;9.730;2023-07-13T02:27:16;78.88;;;75.18;;
9254;SDS011;4663;49.120;9.730;2023-07-13T02:29:41;94.60;;;90.18;;
9254;SDS011;4663;49.120;9.730;2023-07-13T02:32:06;95.00;;;90.57;;
9254;SDS011;4663;49.120;9.730;2023-07-13T02:34:32;91.95;;;87.13;;
9254;SDS011;4663;49.120;9.730;2023-07-13T02:36:58;82.63;;;78.75;;
9254;SDS011;4663;49.120;9.730;2023-07-13T02:39:23;60.58;;;57.63;;
9254;SDS011;4663;49.120;9.730;2023-07-13T02:41:49;73.13;;;69.70;;
9254;SDS011;4663;49.120;9.730;2023-07-13T02:44:14;70.88;;;67.57;;
9254;SDS011;4663;49.120;9.730;2023-07-13T02:46:40;75.22;;;71.57;;
9254;SDS011;4663;49.120;9.730;2023-07-13T02:49:05;62.83;;;59.72;;
9254;SDS011;4663;49.120;9.730;2023-07-13T02:51:31;76.72;;;73.15;;
9254;SDS011;4663;49.120;9.730;2023-07-13T02:53:59;69.15;;;65.85;;
9254;SDS011;4663;49.120;9.730;2023-07-13T02:56:28;83.85;;;79.78;;
9254;SDS011;4663;49.120;9.730;2023-07-13T02:58:55;66.45;;;63.30;;
9254;SDS011;4663;49.120;9.730;2023-07-13T03:01:21;80.07;;;76.32;;
9254;SDS011;4663;49.120;9.730;2023-07-13T03:03:48;88.70;;;84.45;;
9254;SDS011;4663;49.120;9.730;2023-07-13T03:06:14;93.13;;;88.65;;
9254;SDS011;4663;49.120;9.730;2023-07-13T03:08:41;96.35;;;91.88;;
9254;SDS011;4663;49.120;9.730;2023-07-13T03:11:08;95.97;;;91.45;;
9254;SDS011;4663;49.120;9.730;2023-07-13T03:13:39;81.50;;;77.65;;
9254;SDS011;4663;49.120;9.730;2023-07-13T03:16:05;77.28;;;73.60;;
9254;SDS011;4663;49.120;9.730;2023-07-13T03:18:31;74.45;;;70.88;;
9254;SDS011;4663;49.120;9.730;2023-07-13T03:20:57;83.00;;;79.07;;
9254;SDS011;4663;49.120;9.730;2023-07-13T03:23:22;88.53;;;84.15;;
9254;SDS011;4663;49.120;9.730;2023-07-13T03:25:49;77.60;;;73.85;;
9254;SDS011;4663;49.120;9.730;2023-07-13T03:28:15;82.70;;;78.85;;
9254;SDS011;4663;49.120;9.730;2023-07-13T03:30:41;85.13;;;81.05;;
9254;SDS011;4663;49.120;9.730;2023-07-13T03:33:07;97.05;;;92.40;;
9254;SDS011;4663;49.120;9.730;2023-07-13T03:35:33;85.65;;;81.65;;
9254;SDS011;4663;49.120;9.730;2023-07-13T03:37:59;81.18;;;77.22;;
9254;SDS011;4663;49.120;9.730;2023-07-13T03:40:26;76.95;;;73.30;;
9254;SDS011;4663;49.120;9.730;2023-07-13T03:42:52;77.18;;;73.57;;
9254;SDS011;4663;49.120;9.730;2023-07-13T03:45:18;87.75;;;83.38;;
9254;SDS011;4663;49.120;9.730;2023-07-13T03:47:43;87.78;;;83.55;;
9254;SDS011;4663;49.120;9.730;2023-07-13T03:50:09;85.32;;;81.18;;
9254;SDS011;4663;49.120;9.730;2023-07-13T03:52:34;89.03;;;84.72;;
9254;SDS011;4663;49.120;9.730;2023-07-13T03:55:00;99.07;;;94.00;;
9254;SDS011;4663;49.120;9.730;2023-07-13T03:57:25;93.35;;;88.88;;
9254;SDS011;4663;49.120;9.730;2023-07-13T03:59:51;96.85;;;92.28;;
9254;SDS011;4663;49.120;9.730;2023-07-13T04:02:16;106.38;;;101.38;;
9254;SDS011;4663;49.120;9.730;2023-07-13T04:04:42;97.75;;;93.20;;
9254;SDS011;4663;49.120;9.730;2023-07-13T04:07:08;66.65;;;63.17;;
9254;SDS011;4663;49.120;9.730;2023-07-13T04:09:34;59.08;;;56.28;;
9254;SDS011;4663;49.120;9.730;2023-07-13T04:12:00;45.10;;;42.40;;
9254;SDS011;4663;49.120;9.730;2023-07-13T04:14:25;35.97;;;34.15;;
9254;SDS011;4663;49.120;9.730;2023-07-13T04:16:50;39.15;;;37.28;;
9254;SDS011;4663;49.120;9.730;2023-07-13T04:19:16;32.85;;;31.20;;
9254;SDS011;4663;49.120;9.730;2023-07-13T04:21:42;33.00;;;31.30;;
9254;SDS011;4663;49.120;9.730;2023-07-13T04:24:07;34.53;;;32.88;;
9254;SDS011;4663;49.120;9.730;2023-07-13T04:26:33;39.70;;;37.65;;
9254;SDS011;4663;49.120;9.730;2023-07-13T04:29:01;37.80;;;35.95;;
9254;SDS011;4663;49.120;9.730;2023-07-13T04:31:28;51.08;;;48.65;;
9254;SDS011;4663;49.120;9.730;2023-07-13T04:33:54;42.35;;;40.17;;
9254;SDS011;4663;49.120;9.730;2023-07-13T04:36:19;44.72;;;42.13;;
9254;SDS011;4663;49.120;9.730;2023-07-13T04:38:45;51.22;;;48.47;;
9254;SDS011;4663;49.120;9.730;2023-07-13T04:41:10;57.67;;;54.90;;
9254;SDS011;4663;49.120;9.730;2023-07-13T04:43:36;58.28;;;55.38;;
9254;SDS011;4663;49.120;9.730;2023-07-13T04:46:05;44.95;;;42.60;;
9254;SDS011;4663;49.120;9.730;2023-07-13T04:48:32;53.25;;;50.28;;
9254;SDS011;4663;49.120;9.730;2023-07-13T04:50:58;51.17;;;48.72;;
9254;SDS011;4663;49.120;9.730;2023-07-13T04:53:23;44.95;;;42.70;;
9254;SDS011;4663;49.120;9.730;2023-07-13T04:55:50;51.55;;;49.00;;
9254;SDS011;4663;49.120;9.730;2023-07-13T04:58:16;74.32;;;70.75;;
9254;SDS011;4663;49.120;9.730;2023-07-13T05:00:41;55.63;;;52.83;;
9254;SDS011;4663;49.120;9.730;2023-07-13T05:03:06;64.20;;;61.20;;
9254;SDS011;4663;49.120;9.730;2023-07-13T05:05:32;66.97;;;63.78;;
9254;SDS011;4663;49.120;9.730;2023-07-13T05:07:57;66.55;;;63.38;;
9254;SDS011;4663;49.120;9.730;2023-07-13T05:10:23;68.95;;;65.55;;
9254;SDS011;4663;49.120;9.730;2023-07-13T05:12:49;52.35;;;49.85;;
9254;SDS011;4663;49.120;9.730;2023-07-13T05:15:14;42.08;;;39.97;;
9254;SDS011;4663;49.120;9.730;2023-07-13T05:17:40;31.50;;;29.58;;
9254;SDS011;4663;49.120;9.730;2023-07-13T05:20:06;28.23;;;26.80;;
9254;SDS011;4663;49.120;9.730;2023-07-13T05:22:33;30.33;;;28.80;;
9254;SDS011;4663;49.120;9.730;2023-07-13T05:25:00;26.73;;;25.40;;
9254;SDS011;4663;49.120;9.730;2023-07-13T05:27:26;29.20;;;27.45;;
9254;SDS011;4663;49.120;9.730;2023-07-13T05:29:51;32.35;;;30.55;;
9254;SDS011;4663;49.120;9.730;2023-07-13T05:32:17;34.55;;;32.65;;
9254;SDS011;4663;49.120;9.730;2023-07-13T05:34:43;28.70;;;27.05;;
9254;SDS011;4663;49.120;9.730;2023-07-13T05:37:08;27.02;;;25.67;;
9254;SDS011;4663;49.120;9.730;2023-07-13T05:39:34;26.23;;;24.83;;
9254;SDS011;4663;49.120;9.730;2023-07-13T05:41:59;20.95;;;19.92;;
9254;SDS011;4663;49.120;9.730;2023-07-13T05:44:25;21.05;;;19.85;;
9254;SDS011;4663;49.120;9.730;2023-07-13T05:46:50;25.60;;;24.33;;
9254;SDS011;4663;49.120;9.730;2023-07-13T05:49:16;23.20;;;21.85;;
9254;SDS011;4663;49.120;9.730;2023-07-13T05:51:41;20.55;;;19.45;;
9254;SDS011;4663;49.120;9.730;2023-07-13T05:54:06;20.98;;;19.77;;
9254;SDS011;4663;49.120;9.730;2023-07-13T05:56:32;21.33;;;19.88;;
9254;SDS011;4663;49.120;9.730;2023-07-13T05:58:57;21.70;;;20.50;;
9254;SDS011;4663;49.120;9.730;2023-07-13T06:01:23;20.35;;;19.27;;
9254;SDS011;4663;49.120;9.730;2023-07-13T06:03:48;20.25;;;19.25;;
9254;SDS011;4663;49.120;9.730;2023-07-13T06:06:14;21.35;;;20.30;;
9254;SDS011;4663;49.120;9.730;2023-07-13T06:08:40;20.85;;;19.73;;
9254;SDS011;4663;49.120;9.730;2023-07-13T06:11:07;23.42;;;22.13;;
9254;SDS011;4663;49.120;9.730;2023-07-13T06:13:37;21.77;;;20.20;;
9254;SDS011;4663;49.120;9.730;2023-07-13T06:16:03;23.40;;;22.13;;
9254;SDS011;4663;49.120;9.730;2023-07-13T06:18:32;24.25;;;22.95;;
9254;SDS011;4663;49.120;9.730;2023-07-13T06:20:58;21.77;;;20.52;;
9254;SDS011;4663;49.120;9.730;2023-07-13T06:23:24;21.50;;;20.40;;
9254;SDS011;4663;49.120;9.730;2023-07-13T06:25:50;22.85;;;21.73;;
9254;SDS011;4663;49.120;9.730;2023-07-13T06:28:15;23.10;;;21.77;;
9254;SDS011;4663;49.120;9.730;2023-07-13T06:30:40;22.50;;;21.05;;
9254;SDS011;4663;49.120;9.730;2023-07-13T06:33:06;24.30;;;23.13;;
9254;SDS011;4663;49.120;9.730;2023-07-13T06:35:32;22.65;;;21.45;;
9254;SDS011;4663;49.120;9.730;2023-07-13T06:37:57;19.77;;;18.67;;
9254;SDS011;4663;49.120;9.730;2023-07-13T06:40:22;20.75;;;19.67;;
9254;SDS011;4663;49.120;9.730;2023-07-13T06:42:48;22.05;;;20.75;;
9254;SDS011;4663;49.120;9.730;2023-07-13T06:45:13;21.52;;;20.45;;
9254;SDS011;4663;49.120;9.730;2023-07-13T06:47:39;20.05;;;18.95;;
9254;SDS011;4663;49.120;9.730;2023-07-13T06:50:04;19.52;;;18.45;;
9254;SDS011;4663;49.120;9.730;2023-07-13T06:52:30;21.30;;;20.17;;
9254;SDS011;4663;49.120;9.730;2023-07-13T06:54:56;21.98;;;20.70;;
9254;SDS011;4663;49.120;9.730;2023-07-13T06:57:21;22.05;;;20.95;;
9254;SDS011;4663;49.120;9.730;2023-07-13T06:59:46;21.60;;;20.50;;
9254;SDS011;4663;49.120;9.730;2023-07-13T07:02:12;20.98;;;19.83;;
9254;SDS011;4663;49.120;9.730;2023-07-13T07:04:37;22.88;;;21.67;;
9254;SDS011;4663;49.120;9.730;2023-07-13T07:07:02;22.95;;;21.83;;
9254;SDS011;4663;49.120;9.730;2023-07-13T07:09:28;23.35;;;22.20;;
9254;SDS011;4663;49.120;9.730;2023-07-13T07:11:55;20.80;;;19.40;;
9254;SDS011;4663;49.120;9.730;2023-07-13T07:14:20;21.90;;;20.88;;
9254;SDS011;4663;49.120;9.730;2023-07-13T07:16:46;17.60;;;16.60;;
9254;SDS011;4663;49.120;9.730;2023-07-13T07:19:11;16.48;;;15.48;;
9254;SDS011;4663;49.120;9.730;2023-07-13T07:21:37;19.17;;;18.20;;
9254;SDS011;4663;49.120;9.730;2023-07-13T07:24:02;19.73;;;18.75;;
9254;SDS011;4663;49.120;9.730;2023-07-13T07:26:29;21.08;;;19.92;;
9254;SDS011;4663;49.120;9.730;2023-07-13T07:28:55;20.58;;;19.35;;
9254;SDS011;4663;49.120;9.730;2023-07-13T07:31:20;17.85;;;16.75;;
9254;SDS011;4663;49.120;9.730;2023-07-13T07:33:46;18.90;;;17.73;;
9254;SDS011;4663;49.120;9.730;2023-07-13T07:36:11;21.05;;;20.05;;
9254;SDS011;4663;49.120;9.730;2023-07-13T07:38:37;20.83;;;19.83;;
9254;SDS011;4663;49.120;9.730;2023-07-13T07:41:03;19.15;;;18.08;;
9254;SDS011;4663;49.120;9.730;2023-07-13T07:43:29;17.98;;;17.08;;
9254;SDS011;4663;49.120;9.730;2023-07-13T07:45:55;18.83;;;17.83;;
9254;SDS011;4663;49.120;9.730;2023-07-13T07:48:20;20.08;;;18.90;;
9254;SDS011;4663;49.120;9.730;2023-07-13T07:50:45;20.35;;;19.33;;
9254;SDS011;4663;49.120;9.730;2023-07-13T07:53:11;23.20;;;22.00;;
9254;SDS011;4663;49.120;9.730;2023-07-13T07:55:37;25.73;;;24.50;;
9254;SDS011;4663;49.120;9.730;2023-07-13T07:58:04;32.50;;;30.83;;
9254;SDS011;4663;49.120;9.730;2023-07-13T08:00:30;31.95;;;30.35;;
9254;SDS011;4663;49.120;9.730;2023-07-13T08:02:57;29.58;;;28.13;;
9254;SDS011;4663;49.120;9.730;2023-07-13T08:05:23;29.02;;;27.58;;
9254;SDS011;4663;49.120;9.730;2023-07-13T08:07:48;36.70;;;34.90;;
9254;SDS011;4663;49.120;9.730;2023-07-13T08:10:13;41.00;;;39.08;;
9254;SDS011;4663;49.120;9.730;2023-07-13T08:12:39;39.05;;;37.15;;
9254;SDS011;4663;49.120;9.730;2023-07-13T08:15:06;39.72;;;37.85;;
9254;SDS011;4663;49.120;9.730;2023-07-13T08:17:34;40.13;;;38.08;;
9254;SDS011;4663;49.120;9.730;2023-07-13T08:20:00;38.28;;;36.50;;
9254;SDS011;4663;49.120;9.730;2023-07-13T08:22:25;30.38;;;28.83;;
9254;SDS011;4663;49.120;9.730;2023-07-13T08:24:51;30.15;;;28.63;;
9254;SDS011;4663;49.120;9.730;2023-07-13T08:27:21;25.52;;;24.23;;
9254;SDS011;4663;49.120;9.730;2023-07-13T08:29:50;25.33;;;24.05;;
9254;SDS011;4663;49.120;9.730;2023-07-13T08:32:16;26.38;;;25.08;;
9254;SDS011;4663;49.120;9.730;2023-07-13T08:34:43;24.02;;;22.70;;
9254;SDS011;4663;49.120;9.730;2023-07-13T08:37:08;26.15;;;24.75;;
9254;SDS011;4663;49.120;9.730;2023-07-13T08:39:34;26.90;;;25.45;;
9254;SDS011;4663;49.120;9.730;2023-07-13T08:42:07;25.08;;;23.80;;
9254;SDS011;4663;49.120;9.730;2023-07-13T08:47:20;25.52;;;24.30;;
9254;SDS011;4663;49.120;9.730;2023-07-13T08:49:47;25.90;;;24.52;;
9254;SDS011;4663;49.120;9.730;2023-07-13T08:54:53;23.67;;;22.58;;
9254;SDS011;4663;49.120;9.730;2023-07-13T08:57:23;26.15;;;24.80;;
9254;SDS011;4663;49.120;9.730;2023-07-13T08:59:56;25.23;;;23.92;;
9254;SDS011;4663;49.120;9.730;2023-07-13T09:02:27;25.58;;;24.38;;
9254;SDS011;4663;49.120;9.730;2023-07-13T09:05:01;26.42;;;25.13;;
9254;SDS011;4663;49.120;9.730;2023-07-13T09:10:39;24.38;;;23.17;;
9254;SDS011;4663;49.120;9.730;2023-07-13T09:15:49;30.02;;;28.50;;
9254;SDS011;4663;49.120;9.730;2023-07-13T09:18:23;25.65;;;24.35;;
9254;SDS011;4663;49.120;9.730;2023-07-13T09:21:09;25.83;;;24.63;;
9254;SDS011;4663;49.120;9.730;2023-07-13T09:23:38;25.67;;;24.40;;
9254;SDS011;4663;49.120;9.730;2023-07-13T09:28:51;25.83;;;24.52;;
9254;SDS011;4663;49.120;9.730;2023-07-13T09:33:59;27.30;;;26.00;;
9254;SDS011;4663;49.120;9.730;2023-07-13T09:44:13;25.17;;;23.88;;
9254;SDS011;4663;49.120;9.730;2023-07-13T09:47:01;25.13;;;23.92;;
9254;SDS011;4663;49.120;9.730;2023-07-13T09:49:27;26.20;;;24.90;;
9254;SDS011;4663;49.120;9.730;2023-07-13T09:51:58;25.35;;;24.20;;
9254;SDS011;4663;49.120;9.730;2023-07-13T09:54:29;25.73;;;24.52;;
9254;SDS011;4663;49.120;9.730;2023-07-13T09:56:59;24.83;;;23.52;;
9254;SDS011;4663;49.120;9.730;2023-07-13T09:59:33;26.15;;;24.85;;
9254;SDS011;4663;49.120;9.730;2023-07-13T10:05:04;25.55;;;24.10;;
9254;SDS011;4663;49.120;9.730;2023-07-13T10:07:44;24.45;;;23.17;;
9254;SDS011;4663;49.120;9.730;2023-07-13T10:10:14;24.33;;;23.13;;
9254;SDS011;4663;49.120;9.730;2023-07-13T10:12:41;24.67;;;23.38;;
9254;SDS011;4663;49.120;9.730;2023-07-13T10:15:07;23.70;;;22.55;;
9254;SDS011;4663;49.120;9.730;2023-07-13T10:17:41;22.73;;;21.63;;
9254;SDS011;4663;49.120;9.730;2023-07-13T10:20:07;23.55;;;22.15;;
9254;SDS011;4663;49.120;9.730;2023-07-13T10:22:39;24.35;;;23.15;;
9254;SDS011;4663;49.120;9.730;2023-07-13T10:25:27;24.05;;;22.83;;
9254;SDS011;4663;49.120;9.730;2023-07-13T10:27:58;24.50;;;23.10;;
9254;SDS011;4663;49.120;9.730;2023-07-13T10:30:31;27.30;;;25.95;;
9254;SDS011;4663;49.120;9.730;2023-07-13T10:33:01;30.50;;;28.95;;
9254;SDS011;4663;49.120;9.730;2023-07-13T10:35:29;27.77;;;26.35;;
9254;SDS011;4663;49.120;9.730;2023-07-13T10:40:42;34.72;;;32.92;;
9254;SDS011;4663;49.120;9.730;2023-07-13T10:43:18;34.03;;;32.35;;
9254;SDS011;4663;49.120;9.730;2023-07-13T10:45:50;35.13;;;33.15;;
9254;SDS011;4663;49.120;9.730;2023-07-13T10:48:16;31.20;;;29.70;;
9254;SDS011;4663;49.120;9.730;2023-07-13T10:50:43;34.55;;;32.85;;
9254;SDS011;4663;49.120;9.730;2023-07-13T10:53:22;36.20;;;34.20;;
9254;SDS011;4663;49.120;9.730;2023-07-13T10:55:55;37.20;;;35.42;;
9254;SDS011;4663;49.120;9.730;2023-07-13T11:01:11;33.58;;;31.83;;
9254;SDS011;4663;49.120;9.730;2023-07-13T11:03:54;34.42;;;32.70;;
9254;SDS011;4663;49.120;9.730;2023-07-13T11:08:54;37.47;;;35.58;;
9254;SDS011;4663;49.120;9.730;2023-07-13T11:18:48;35.30;;;33.50;;
9254;SDS011;4663;49.120;9.730;2023-07-13T11:23:44;35.95;;;34.17;;
9254;SDS011;4663;49.120;9.730;2023-07-13T11:32:23;27.27;;;25.70;;
9254;SDS011;4663;49.120;9.730;2023-07-13T11:34:54;33.35;;;31.77;;
9254;SDS011;4663;49.120;9.730;2023-07-13T11:37:20;35.40;;;33.70;;
9254;SDS011;4663;49.120;9.730;2023-07-13T11:39:47;35.80;;;34.00;;
9254;SDS011;4663;49.120;9.730;2023-07-13T11:42:15;33.95;;;32.25;;
9254;SDS011;4663;49.120;9.730;2023-07-13T11:44:44;31.50;;;29.80;;
9254;SDS011;4663;49.120;9.730;2023-07-13T11:47:14;30.67;;;29.10;;
9254;SDS011;4663;49.120;9.730;2023-07-13T11:49:47;29.23;;;27.85;;
9254;SDS011;4663;49.120;9.730;2023-07-13T11:52:14;25.52;;;24.33;;
9254;SDS011;4663;49.120;9.730;2023-07-13T11:54:49;22.92;;;21.73;;
9254;SDS011;4663;49.120;9.730;2023-07-13T11:57:30;21.00;;;19.98;;
9254;SDS011;4663;49.120;9.730;2023-07-13T12:00:00;22.73;;;21.63;;
9254;SDS011;4663;49.120;9.730;2023-07-13T12:02:36;23.90;;;22.70;;
9254;SDS011;4663;49.120;9.730;2023-07-13T12:05:04;25.15;;;23.92;;
9254;SDS011;4663;49.120;9.730;2023-07-13T12:07:31;28.35;;;26.95;;
9254;SDS011;4663;49.120;9.730;2023-07-13T12:13:14;30.15;;;28.73;;
9254;SDS011;4663;49.120;9.730;2023-07-13T12:15:37;32.63;;;30.95;;
9254;SDS011;4663;49.120;9.730;2023-07-13T12:18:12;32.95;;;31.25;;
9254;SDS011;4663;49.120;9.730;2023-07-13T12:20:40;35.28;;;33.58;;
9254;SDS011;4663;49.120;9.730;2023-07-13T12:23:51;35.13;;;33.22;;
9254;SDS011;4663;49.120;9.730;2023-07-13T12:25:59;35.70;;;33.90;;
9254;SDS011;4663;49.120;9.730;2023-07-13T12:31:01;32.67;;;31.08;;
9254;SDS011;4663;49.120;9.730;2023-07-13T12:33:29;31.40;;;29.95;;
9254;SDS011;4663;49.120;9.730;2023-07-13T12:35:56;33.30;;;31.70;;
9254;SDS011;4663;49.120;9.730;2023-07-13T12:38:24;36.05;;;34.25;;
9254;SDS011;4663;49.120;9.730;2023-07-13T12:40:50;37.22;;;35.35;;
9254;SDS011;4663;49.120;9.730;2023-07-13T12:43:17;33.25;;;31.45;;
9254;SDS011;4663;49.120;9.730;2023-07-13T12:45:56;31.42;;;29.90;;
9254;SDS011;4663;49.120;9.730;2023-07-13T12:48:29;34.90;;;32.45;;
9254;SDS011;4663;49.120;9.730;2023-07-13T12:50:55;32.22;;;30.65;;
9254;SDS011;4663;49.120;9.730;2023-07-13T12:53:22;30.42;;;28.90;;
9254;SDS011;4663;49.120;9.730;2023-07-13T12:55:55;29.83;;;28.33;;
9254;SDS011;4663;49.120;9.730;2023-07-13T12:58:26;27.80;;;26.40;;
9254;SDS011;4663;49.120;9.730;2023-07-13T13:01:01;32.58;;;31.00;;
9254;SDS011;4663;49.120;9.730;2023-07-13T13:03:37;33.35;;;31.67;;
9254;SDS011;4663;49.120;9.730;2023-07-13T13:08:40;31.40;;;29.90;;
9254;SDS011;4663;49.120;9.730;2023-07-13T13:11:08;30.77;;;29.30;;
9254;SDS011;4663;49.120;9.730;2023-07-13T13:13:34;33.65;;;31.95;;
9254;SDS011;4663;49.120;9.730;2023-07-13T13:18:35;30.20;;;28.73;;
9254;SDS011;4663;49.120;9.730;2023-07-13T13:21:01;32.47;;;30.77;;
9254;SDS011;4663;49.120;9.730;2023-07-13T13:23:26;31.42;;;29.92;;
9254;SDS011;4663;49.120;9.730;2023-07-13T13:25:52;30.17;;;28.60;;
9254;SDS011;4663;49.120;9.730;2023-07-13T13:28:18;29.95;;;28.38;;
9254;SDS011;4663;49.120;9.730;2023-07-13T13:30:46;28.05;;;26.70;;
9254;SDS011;4663;49.120;9.730;2023-07-13T13:33:13;29.00;;;27.52;;
9254;SDS011;4663;49.120;9.730;2023-07-13T13:35:41;26.55;;;25.13;;
9254;SDS011;4663;49.120;9.730;2023-07-13T13:40:40;22.88;;;21.67;;
9254;SDS011;4663;49.120;9.730;2023-07-13T13:43:14;22.50;;;21.40;;
9254;SDS011;4663;49.120;9.730;2023-07-13T13:45:41;23.58;;;22.27;;
9254;SDS011;4663;49.120;9.730;2023-07-13T13:48:07;22.58;;;21.48;;
9254;SDS011;4663;49.120;9.730;2023-07-13T13:50:39;23.98;;;22.80;;
9254;SDS011;4663;49.120;9.730;2023-07-13T13:53:07;23.98;;;22.83;;
9254;SDS011;4663;49.120;9.730;2023-07-13T13:55:35;22.30;;;21.08;;
9254;SDS011;4663;49.120;9.730;2023-07-13T13:58:00;22.35;;;21.15;;
9254;SDS011;4663;49.120;9.730;2023-07-13T14:00:25;22.52;;;21.27;;
9254;SDS011;4663;49.120;9.730;2023-07-13T14:02:51;23.08;;;21.77;;
9254;SDS011;4663;49.120;9.730;2023-07-13T14:05:21;21.42;;;20.33;;
9254;SDS011;4663;49.120;9.730;2023-07-13T14:07:48;24.40;;;23.20;;
9254;SDS011;4663;49.120;9.730;2023-07-13T14:10:15;24.40;;;22.95;;
9254;SDS011;4663;49.120;9.730;2023-07-13T14:12:43;23.92;;;22.55;;
9254;SDS011;4663;49.120;9.730;2023-07-13T14:15:18;25.52;;;24.23;;
9254;SDS011;4663;49.120;9.730;2023-07-13T14:17:46;24.17;;;22.98;;
9254;SDS011;4663;49.120;9.730;2023-07-13T14:20:15;25.00;;;23.80;;
9254;SDS011;4663;49.120;9.730;2023-07-13T14:22:42;25.50;;;24.02;;
9254;SDS011;4663;49.120;9.730;2023-07-13T14:25:14;26.73;;;25.33;;
9254;SDS011;4663;49.120;9.730;2023-07-13T14:27:40;35.78;;;33.90;;
9254;SDS011;4663;49.120;9.730;2023-07-13T14:30:17;33.65;;;31.88;;
9254;SDS011;4663;49.120;9.730;2023-07-13T14:32:45;36.00;;;34.30;;
9254;SDS011;4663;49.120;9.730;2023-07-13T14:35:13;33.95;;;32.35;;
9254;SDS011;4663;49.120;9.730;2023-07-13T14:37:40;34.33;;;32.65;;
9254;SDS011;4663;49.120;9.730;2023-07-13T14:40:40;36.28;;;34.58;;
9254;SDS011;4663;49.120;9.730;2023-07-13T14:42:58;37.83;;;36.03;;
9254;SDS011;4663;49.120;9.730;2023-07-13T14:45:24;35.85;;;33.88;;
9254;SDS011;4663;49.120;9.730;2023-07-13T14:47:50;35.33;;;33.63;;
9254;SDS011;4663;49.120;9.730;2023-07-13T14:50:20;32.60;;;30.95;;
9254;SDS011;4663;49.120;9.730;2023-07-13T14:52:54;27.60;;;26.23;;
9254;SDS011;4663;49.120;9.730;2023-07-13T14:55:20;27.25;;;25.83;;
9254;SDS011;4663;49.120;9.730;2023-07-13T14:57:46;27.15;;;25.65;;
9254;SDS011;4663;49.120;9.730;2023-07-13T15:00:13;26.42;;;25.08;;
9254;SDS011;4663;49.120;9.730;2023-07-13T15:02:47;28.10;;;26.55;;
9254;SDS011;4663;49.120;9.730;2023-07-13T15:05:17;28.42;;;27.05;;
9254;SDS011;4663;49.120;9.730;2023-07-13T15:07:56;27.85;;;26.35;;
9254;SDS011;4663;49.120;9.730;2023-07-13T15:10:24;29.02;;;27.55;;
9254;SDS011;4663;49.120;9.730;2023-07-13T15:12:52;27.52;;;26.20;;
9254;SDS011;4663;49.120;9.730;2023-07-13T15:15:18;27.35;;;26.00;;
9254;SDS011;4663;49.120;9.730;2023-07-13T15:17:45;28.85;;;27.38;;
9254;SDS011;4663;49.120;9.730;2023-07-13T15:22:51;26.98;;;25.67;;
9254;SDS011;4663;49.120;9.730;2023-07-13T15:25:18;26.95;;;25.63;;
9254;SDS011;4663;49.120;9.730;2023-07-13T15:27:45;26.85;;;25.38;;
9254;SDS011;4663;49.120;9.730;2023-07-13T15:30:11;25.08;;;23.83;;
9254;SDS011;4663;49.120;9.730;2023-07-13T15:32:37;23.90;;;22.63;;
9254;SDS011;4663;49.120;9.730;2023-07-13T15:35:03;22.30;;;21.08;;
9254;SDS011;4663;49.120;9.730;2023-07-13T15:37:29;16.77;;;15.98;;
9254;SDS011;4663;49.120;9.730;2023-07-13T15:39:54;18.35;;;17.35;;
9254;SDS011;4663;49.120;9.730;2023-07-13T15:42:20;18.67;;;17.58;;
9254;SDS011;4663;49.120;9.730;2023-07-13T15:44:46;19.63;;;18.63;;
9254;SDS011;4663;49.120;9.730;2023-07-13T15:47:13;20.95;;;19.90;;
9254;SDS011;4663;49.120;9.730;2023-07-13T15:49:39;20.42;;;19.27;;
9254;SDS011;4663;49.120;9.730;2023-07-13T15:52:18;20.52;;;19.52;;
9254;SDS011;4663;49.120;9.730;2023-07-13T15:54:47;22.73;;;21.63;;
9254;SDS011;4663;49.120;9.730;2023-07-13T15:57:13;23.15;;;21.70;;